sensor_id;sensor_type;location;lat;lon;timestamp;pressure;altitude;pressure_sealevel;temperature;humidity
59106;BME280;44891;50.204;8.132;2023-03-20T00:00:57;98387.22;;;7.84;100.00
59106;BME280;44891;50.204;8.132;2023-03-20T00:05:00;98395.38;;;7.95;100.00
59106;BME280;44891;50.204;8.132;2023-03-20T00:09:02;98392.03;;;7.87;100.00
59106;BME280;44891;50.204;8.132;2023-03-20T00:13:05;98399.38;;;7.97;100.00
59106;BME280;44891;50.204;8.132;2023-03-20T00:17:08;98397.28;;;8.06;100.00
59106;BME280;44891;50.204;8.132;2023-03-20T00:21:11;98398.22;;;8.11;100.00
59106;BME280;44891;50.204;8.132;2023-03-20T00:25:18;98400.41;;;8.14;100.00
59106;BME280;44891;50.204;8.132;2023-03-20T00:29:23;98401.84;;;8.10;100.00
59106;BME280;44891;50.204;8.132;2023-03-20T00:33:25;98400.31;;;8.03;100.00
59106;BME280;44891;50.204;8.132;2023-03-20T00:37:27;98403.00;;;7.96;100.00
59106;BME280;44891;50.204;8.132;2023-03-20T00:41:32;98406.25;;;7.91;100.00
59106;BME280;44891;50.204;8.132;2023-03-20T00:45:38;98410.63;;;7.98;100.00
59106;BME280;44891;50.204;8.132;2023-03-20T00:49:44;98407.53;;;8.07;100.00
59106;BME280;44891;50.204;8.132;2023-03-20T00:53:47;98413.84;;;8.18;100.00
59106;BME280;44891;50.204;8.132;2023-03-20T00:57:50;98407.31;;;8.27;100.00
59106;BME280;44891;50.204;8.132;2023-03-20T01:01:54;98415.94;;;8.09;100.00
59106;BME280;44891;50.204;8.132;2023-03-20T01:05:55;98408.53;;;8.25;100.00
59106;BME280;44891;50.204;8.132;2023-03-20T01:09:58;98407.84;;;8.36;100.00
59106;BME280;44891;50.204;8.132;2023-03-20T01:14:00;98404.34;;;8.42;100.00
59106;BME280;44891;50.204;8.132;2023-03-20T01:18:03;98415.06;;;8.40;100.00
59106;BME280;44891;50.204;8.132;2023-03-20T01:22:05;98418.50;;;8.34;100.00
59106;BME280;44891;50.204;8.132;2023-03-20T01:26:10;98410.75;;;8.46;100.00
59106;BME280;44891;50.204;8.132;2023-03-20T01:30:20;98421.72;;;8.55;100.00
59106;BME280;44891;50.204;8.132;2023-03-20T01:34:24;98420.13;;;8.54;100.00
59106;BME280;44891;50.204;8.132;2023-03-20T01:38:28;98415.97;;;8.64;100.00
59106;BME280;44891;50.204;8.132;2023-03-20T01:42:33;98419.25;;;8.60;100.00
59106;BME280;44891;50.204;8.132;2023-03-20T01:46:34;98421.88;;;8.60;100.00
59106;BME280;44891;50.204;8.132;2023-03-20T01:50:48;98426.72;;;8.56;100.00
59106;BME280;44891;50.204;8.132;2023-03-20T01:54:50;98422.38;;;8.50;100.00
59106;BME280;44891;50.204;8.132;2023-03-20T01:58:52;98431.81;;;8.51;100.00
59106;BME280;44891;50.204;8.132;2023-03-20T02:02:56;98425.28;;;8.60;100.00
59106;BME280;44891;50.204;8.132;2023-03-20T02:07:20;98430.69;;;8.65;100.00
59106;BME280;44891;50.204;8.132;2023-03-20T02:11:52;98429.13;;;8.76;100.00
59106;BME280;44891;50.204;8.132;2023-03-20T02:15:56;98422.06;;;8.77;100.00
59106;BME280;44891;50.204;8.132;2023-03-20T02:20:19;98428.06;;;8.65;100.00
59106;BME280;44891;50.204;8.132;2023-03-20T02:29:04;98433.22;;;8.72;100.00
59106;BME280;44891;50.204;8.132;2023-03-20T02:37:46;98426.94;;;8.73;100.00
59106;BME280;44891;50.204;8.132;2023-03-20T02:41:53;98426.72;;;8.75;100.00
59106;BME280;44891;50.204;8.132;2023-03-20T02:45:58;98432.09;;;8.80;100.00
59106;BME280;44891;50.204;8.132;2023-03-20T02:50:09;98430.34;;;8.92;100.00
59106;BME280;44891;50.204;8.132;2023-03-20T02:54:16;98429.13;;;9.06;100.00
59106;BME280;44891;50.204;8.132;2023-03-20T02:58:27;98419.13;;;9.15;100.00
59106;BME280;44891;50.204;8.132;2023-03-20T03:02:33;98426.66;;;9.11;100.00
59106;BME280;44891;50.204;8.132;2023-03-20T03:06:37;98427.00;;;9.15;100.00
59106;BME280;44891;50.204;8.132;2023-03-20T03:10:46;98429.59;;;9.15;100.00
59106;BME280;44891;50.204;8.132;2023-03-20T03:14:51;98426.66;;;9.23;100.00
59106;BME280;44891;50.204;8.132;2023-03-20T03:19:04;98432.00;;;9.16;100.00
59106;BME280;44891;50.204;8.132;2023-03-20T03:23:09;98438.41;;;9.20;100.00
59106;BME280;44891;50.204;8.132;2023-03-20T03:27:18;98440.00;;;9.21;100.00
59106;BME280;44891;50.204;8.132;2023-03-20T03:31:21;98462.00;;;9.20;100.00
59106;BME280;44891;50.204;8.132;2023-03-20T03:35:24;98472.91;;;8.87;100.00
59106;BME280;44891;50.204;8.132;2023-03-20T03:39:27;98465.19;;;8.56;100.00
59106;BME280;44891;50.204;8.132;2023-03-20T03:43:34;98463.19;;;8.39;100.00
59106;BME280;44891;50.204;8.132;2023-03-20T03:47:38;98466.69;;;8.27;100.00
59106;BME280;44891;50.204;8.132;2023-03-20T03:51:42;98464.78;;;8.15;100.00
59106;BME280;44891;50.204;8.132;2023-03-20T03:55:47;98455.91;;;8.16;100.00
59106;BME280;44891;50.204;8.132;2023-03-20T03:59:52;98461.41;;;8.33;100.00
59106;BME280;44891;50.204;8.132;2023-03-20T04:03:57;98469.84;;;8.35;100.00
59106;BME280;44891;50.204;8.132;2023-03-20T04:08:01;98479.88;;;8.38;100.00
59106;BME280;44891;50.204;8.132;2023-03-20T04:12:04;98470.66;;;8.36;100.00
59106;BME280;44891;50.204;8.132;2023-03-20T04:16:09;98485.09;;;8.38;100.00
59106;BME280;44891;50.204;8.132;2023-03-20T04:20:13;98488.91;;;8.42;100.00
59106;BME280;44891;50.204;8.132;2023-03-20T04:24:15;98498.22;;;8.32;100.00
59106;BME280;44891;50.204;8.132;2023-03-20T04:28:18;98506.59;;;8.22;100.00
59106;BME280;44891;50.204;8.132;2023-03-20T04:32:47;98502.25;;;8.34;100.00
59106;BME280;44891;50.204;8.132;2023-03-20T04:36:59;98520.31;;;8.17;100.00
59106;BME280;44891;50.204;8.132;2023-03-20T04:41:13;98518.75;;;8.10;100.00
59106;BME280;44891;50.204;8.132;2023-03-20T04:45:17;98524.47;;;8.00;100.00
59106;BME280;44891;50.204;8.132;2023-03-20T04:49:21;98525.63;;;8.04;100.00
59106;BME280;44891;50.204;8.132;2023-03-20T04:53:23;98530.97;;;7.91;100.00
59106;BME280;44891;50.204;8.132;2023-03-20T04:57:25;98522.13;;;7.92;100.00
59106;BME280;44891;50.204;8.132;2023-03-20T05:01:28;98501.69;;;8.07;100.00
59106;BME280;44891;50.204;8.132;2023-03-20T05:05:31;98476.22;;;8.21;100.00
59106;BME280;44891;50.204;8.132;2023-03-20T05:09:34;98477.28;;;8.32;100.00
59106;BME280;44891;50.204;8.132;2023-03-20T05:13:38;98479.50;;;8.35;100.00
59106;BME280;44891;50.204;8.132;2023-03-20T05:17:57;98472.41;;;8.42;100.00
59106;BME280;44891;50.204;8.132;2023-03-20T05:22:20;98484.72;;;8.35;100.00
59106;BME280;44891;50.204;8.132;2023-03-20T05:26:36;98491.59;;;8.36;100.00
59106;BME280;44891;50.204;8.132;2023-03-20T05:31:13;98485.56;;;8.35;100.00
59106;BME280;44891;50.204;8.132;2023-03-20T05:35:39;98492.31;;;8.43;100.00
59106;BME280;44891;50.204;8.132;2023-03-20T05:40:06;98481.72;;;8.31;100.00
59106;BME280;44891;50.204;8.132;2023-03-20T05:44:27;98494.06;;;8.49;100.00
59106;BME280;44891;50.204;8.132;2023-03-20T05:49:01;98506.59;;;8.47;100.00
59106;BME280;44891;50.204;8.132;2023-03-20T05:53:20;98515.06;;;8.42;100.00
59106;BME280;44891;50.204;8.132;2023-03-20T05:57:49;98521.25;;;8.48;100.00
59106;BME280;44891;50.204;8.132;2023-03-20T06:02:09;98493.50;;;8.22;100.00
59106;BME280;44891;50.204;8.132;2023-03-20T06:06:15;98522.13;;;8.42;100.00
59106;BME280;44891;50.204;8.132;2023-03-20T06:10:21;98518.56;;;8.55;100.00
59106;BME280;44891;50.204;8.132;2023-03-20T06:14:26;98508.03;;;8.61;100.00
59106;BME280;44891;50.204;8.132;2023-03-20T06:18:33;98506.72;;;8.70;100.00
59106;BME280;44891;50.204;8.132;2023-03-20T06:22:35;98501.94;;;8.67;100.00
59106;BME280;44891;50.204;8.132;2023-03-20T06:26:37;98496.47;;;8.69;100.00
59106;BME280;44891;50.204;8.132;2023-03-20T06:30:45;98503.66;;;8.55;100.00
59106;BME280;44891;50.204;8.132;2023-03-20T06:34:52;98504.84;;;8.59;100.00
59106;BME280;44891;50.204;8.132;2023-03-20T06:38:54;98496.53;;;8.62;100.00
59106;BME280;44891;50.204;8.132;2023-03-20T06:42:57;98498.50;;;8.67;100.00
59106;BME280;44891;50.204;8.132;2023-03-20T06:47:10;98504.41;;;8.81;100.00
59106;BME280;44891;50.204;8.132;2023-03-20T06:51:12;98501.72;;;8.87;100.00
59106;BME280;44891;50.204;8.132;2023-03-20T06:55:23;98507.31;;;8.73;100.00
59106;BME280;44891;50.204;8.132;2023-03-20T06:59:25;98504.56;;;8.67;100.00
59106;BME280;44891;50.204;8.132;2023-03-20T07:03:32;98511.38;;;8.68;100.00
59106;BME280;44891;50.204;8.132;2023-03-20T07:07:40;98527.97;;;8.81;100.00
59106;BME280;44891;50.204;8.132;2023-03-20T07:11:42;98526.53;;;8.85;100.00
59106;BME280;44891;50.204;8.132;2023-03-20T07:15:44;98525.63;;;8.91;100.00
59106;BME280;44891;50.204;8.132;2023-03-20T07:19:53;98522.44;;;9.07;100.00
59106;BME280;44891;50.204;8.132;2023-03-20T07:23:55;98534.56;;;9.20;99.48
59106;BME280;44891;50.204;8.132;2023-03-20T07:27:57;98537.91;;;9.27;100.00
59106;BME280;44891;50.204;8.132;2023-03-20T07:32:01;98549.03;;;9.22;100.00
59106;BME280;44891;50.204;8.132;2023-03-20T07:36:09;98538.78;;;9.21;99.95
59106;BME280;44891;50.204;8.132;2023-03-20T07:40:11;98528.25;;;9.39;99.93
59106;BME280;44891;50.204;8.132;2023-03-20T07:44:26;98513.47;;;9.45;98.99
59106;BME280;44891;50.204;8.132;2023-03-20T07:48:28;98514.88;;;9.59;98.34
59106;BME280;44891;50.204;8.132;2023-03-20T07:52:31;98522.69;;;9.77;95.60
59106;BME280;44891;50.204;8.132;2023-03-20T07:56:33;98516.91;;;9.99;94.08
59106;BME280;44891;50.204;8.132;2023-03-20T08:00:34;98525.91;;;10.15;94.44
59106;BME280;44891;50.204;8.132;2023-03-20T08:04:37;98531.91;;;10.45;92.45
59106;BME280;44891;50.204;8.132;2023-03-20T08:08:40;98534.84;;;10.49;90.58
59106;BME280;44891;50.204;8.132;2023-03-20T08:12:42;98538.50;;;10.59;90.98
59106;BME280;44891;50.204;8.132;2023-03-20T08:16:43;98555.88;;;10.37;90.33
59106;BME280;44891;50.204;8.132;2023-03-20T08:20:45;98548.31;;;10.41;91.45
59106;BME280;44891;50.204;8.132;2023-03-20T08:24:48;98545.47;;;10.42;91.02
59106;BME280;44891;50.204;8.132;2023-03-20T08:28:50;98560.78;;;10.33;91.33
59106;BME280;44891;50.204;8.132;2023-03-20T08:32:52;98569.91;;;10.31;92.07
59106;BME280;44891;50.204;8.132;2023-03-20T08:36:54;98584.91;;;10.12;90.95
59106;BME280;44891;50.204;8.132;2023-03-20T08:40:58;98578.84;;;10.00;92.91
59106;BME280;44891;50.204;8.132;2023-03-20T08:45:00;98584.56;;;10.08;90.13
59106;BME280;44891;50.204;8.132;2023-03-20T08:49:02;98576.47;;;10.22;90.18
59106;BME280;44891;50.204;8.132;2023-03-20T08:53:04;98584.16;;;10.35;90.13
59106;BME280;44891;50.204;8.132;2023-03-20T08:57:08;98579.94;;;10.46;87.29
59106;BME280;44891;50.204;8.132;2023-03-20T09:01:10;98573.13;;;10.56;87.54
59106;BME280;44891;50.204;8.132;2023-03-20T09:05:12;98570.59;;;10.61;86.84
59106;BME280;44891;50.204;8.132;2023-03-20T09:09:14;98577.09;;;10.59;85.07
59106;BME280;44891;50.204;8.132;2023-03-20T09:13:19;98564.88;;;10.76;84.37
59106;BME280;44891;50.204;8.132;2023-03-20T09:17:22;98553.66;;;10.93;83.36
59106;BME280;44891;50.204;8.132;2023-03-20T09:21:24;98550.78;;;10.94;81.67
59106;BME280;44891;50.204;8.132;2023-03-20T09:25:26;98550.41;;;11.02;82.52
59106;BME280;44891;50.204;8.132;2023-03-20T09:29:29;98560.84;;;10.97;82.26
59106;BME280;44891;50.204;8.132;2023-03-20T09:33:31;98567.13;;;10.96;81.70
59106;BME280;44891;50.204;8.132;2023-03-20T09:37:33;98569.44;;;11.21;81.34
59106;BME280;44891;50.204;8.132;2023-03-20T09:41:35;98574.38;;;11.29;80.71
59106;BME280;44891;50.204;8.132;2023-03-20T09:45:41;98577.56;;;11.20;80.80
59106;BME280;44891;50.204;8.132;2023-03-20T09:49:47;98580.84;;;10.98;81.48
59106;BME280;44891;50.204;8.132;2023-03-20T09:53:52;98583.22;;;11.00;82.37
59106;BME280;44891;50.204;8.132;2023-03-20T09:57:57;98584.00;;;11.12;81.86
59106;BME280;44891;50.204;8.132;2023-03-20T10:02:05;98578.72;;;11.24;80.78
59106;BME280;44891;50.204;8.132;2023-03-20T10:06:11;98572.22;;;11.14;78.52
59106;BME280;44891;50.204;8.132;2023-03-20T10:10:14;98584.75;;;11.36;77.37
59106;BME280;44891;50.204;8.132;2023-03-20T10:14:22;98578.50;;;11.54;76.67
59106;BME280;44891;50.204;8.132;2023-03-20T10:18:27;98591.75;;;11.59;73.63
59106;BME280;44891;50.204;8.132;2023-03-20T10:22:31;98593.31;;;11.43;72.70
59106;BME280;44891;50.204;8.132;2023-03-20T10:26:33;98603.56;;;11.44;73.85
59106;BME280;44891;50.204;8.132;2023-03-20T10:30:39;98590.66;;;11.43;74.58
59106;BME280;44891;50.204;8.132;2023-03-20T10:34:54;98585.63;;;11.41;75.66
59106;BME280;44891;50.204;8.132;2023-03-20T10:38:59;98582.50;;;11.56;74.35
59106;BME280;44891;50.204;8.132;2023-03-20T10:43:08;98578.16;;;11.79;72.77
59106;BME280;44891;50.204;8.132;2023-03-20T10:47:13;98580.66;;;11.85;71.25
59106;BME280;44891;50.204;8.132;2023-03-20T10:51:19;98576.13;;;12.14;71.39
59106;BME280;44891;50.204;8.132;2023-03-20T10:55:22;98570.09;;;12.31;70.39
59106;BME280;44891;50.204;8.132;2023-03-20T10:59:27;98572.25;;;12.89;69.84
59106;BME280;44891;50.204;8.132;2023-03-20T11:03:30;98572.72;;;14.06;65.63
59106;BME280;44891;50.204;8.132;2023-03-20T11:07:35;98566.91;;;14.78;60.84
59106;BME280;44891;50.204;8.132;2023-03-20T11:11:38;98573.56;;;14.86;58.34
59106;BME280;44891;50.204;8.132;2023-03-20T11:15:43;98568.72;;;15.30;53.94
59106;BME280;44891;50.204;8.132;2023-03-20T11:19:45;98567.97;;;15.50;52.11
59106;BME280;44891;50.204;8.132;2023-03-20T11:23:48;98559.06;;;14.93;52.42
59106;BME280;44891;50.204;8.132;2023-03-20T11:27:51;98554.19;;;15.38;51.67
59106;BME280;44891;50.204;8.132;2023-03-20T11:31:56;98552.31;;;15.38;51.67
59106;BME280;44891;50.204;8.132;2023-03-20T11:36:09;98551.13;;;15.66;50.34
59106;BME280;44891;50.204;8.132;2023-03-20T11:40:14;98552.97;;;15.81;48.79
59106;BME280;44891;50.204;8.132;2023-03-20T11:44:20;98553.78;;;16.07;48.06
59106;BME280;44891;50.204;8.132;2023-03-20T11:48:24;98555.63;;;16.01;47.69
59106;BME280;44891;50.204;8.132;2023-03-20T11:52:27;98551.66;;;15.99;47.50
59106;BME280;44891;50.204;8.132;2023-03-20T11:56:32;98547.16;;;16.25;47.12
59106;BME280;44891;50.204;8.132;2023-03-20T12:00:36;98543.47;;;16.06;47.10
59106;BME280;44891;50.204;8.132;2023-03-20T12:04:38;98541.22;;;15.51;47.52
59106;BME280;44891;50.204;8.132;2023-03-20T12:08:44;98543.06;;;15.26;46.82
59106;BME280;44891;50.204;8.132;2023-03-20T12:12:49;98545.41;;;14.64;48.20
59106;BME280;44891;50.204;8.132;2023-03-20T12:16:55;98539.09;;;14.28;49.06
59106;BME280;44891;50.204;8.132;2023-03-20T12:21:02;98532.25;;;13.95;49.15
59106;BME280;44891;50.204;8.132;2023-03-20T12:25:10;98533.25;;;13.62;50.55
59106;BME280;44891;50.204;8.132;2023-03-20T12:29:21;98531.66;;;13.34;51.39
59106;BME280;44891;50.204;8.132;2023-03-20T12:33:30;98520.94;;;13.41;51.30
59106;BME280;44891;50.204;8.132;2023-03-20T12:37:35;98511.31;;;13.07;50.80
59106;BME280;44891;50.204;8.132;2023-03-20T12:41:39;98510.31;;;12.70;52.16
59106;BME280;44891;50.204;8.132;2023-03-20T12:45:46;98516.06;;;12.67;52.16
59106;BME280;44891;50.204;8.132;2023-03-20T12:49:53;98499.78;;;12.70;51.24
59106;BME280;44891;50.204;8.132;2023-03-20T12:54:01;98482.31;;;12.64;51.50
59106;BME280;44891;50.204;8.132;2023-03-20T12:58:13;98473.34;;;12.65;51.53
59106;BME280;44891;50.204;8.132;2023-03-20T13:02:25;98471.63;;;12.53;52.65
59106;BME280;44891;50.204;8.132;2023-03-20T13:06:33;98482.78;;;12.61;51.91
59106;BME280;44891;50.204;8.132;2023-03-20T13:10:38;98479.13;;;12.62;51.09
59106;BME280;44891;50.204;8.132;2023-03-20T13:14:42;98440.19;;;12.25;48.59
59106;BME280;44891;50.204;8.132;2023-03-20T13:18:54;98490.41;;;12.40;48.59
59106;BME280;44891;50.204;8.132;2023-03-20T13:23:03;98490.06;;;12.53;49.32
59106;BME280;44891;50.204;8.132;2023-03-20T13:27:13;98477.94;;;12.52;48.99
59106;BME280;44891;50.204;8.132;2023-03-20T13:31:24;98444.56;;;12.36;50.44
59106;BME280;44891;50.204;8.132;2023-03-20T13:35:31;98474.88;;;12.61;48.76
59106;BME280;44891;50.204;8.132;2023-03-20T13:39:36;98438.59;;;12.24;50.46
59106;BME280;44891;50.204;8.132;2023-03-20T13:43:42;98474.78;;;12.34;49.04
59106;BME280;44891;50.204;8.132;2023-03-20T13:47:46;98463.75;;;11.98;49.30
59106;BME280;44891;50.204;8.132;2023-03-20T13:51:50;98472.06;;;11.90;50.04
59106;BME280;44891;50.204;8.132;2023-03-20T13:55:58;98437.03;;;11.73;48.37
59106;BME280;44891;50.204;8.132;2023-03-20T14:00:06;98453.84;;;11.88;48.88
59106;BME280;44891;50.204;8.132;2023-03-20T14:04:12;98445.91;;;11.83;50.36
59106;BME280;44891;50.204;8.132;2023-03-20T14:08:21;98452.84;;;11.89;49.14
59106;BME280;44891;50.204;8.132;2023-03-20T14:12:24;98452.22;;;11.82;47.87
59106;BME280;44891;50.204;8.132;2023-03-20T14:16:26;98446.59;;;11.79;47.28
59106;BME280;44891;50.204;8.132;2023-03-20T14:20:30;98448.75;;;11.65;47.71
59106;BME280;44891;50.204;8.132;2023-03-20T14:24:35;98447.22;;;11.52;48.52
59106;BME280;44891;50.204;8.132;2023-03-20T14:28:43;98452.81;;;11.56;49.38
59106;BME280;44891;50.204;8.132;2023-03-20T14:32:50;98452.81;;;11.56;49.74
59106;BME280;44891;50.204;8.132;2023-03-20T14:36:55;98454.63;;;11.55;50.29
59106;BME280;44891;50.204;8.132;2023-03-20T14:41:01;98459.50;;;11.63;51.35
59106;BME280;44891;50.204;8.132;2023-03-20T14:49:37;98469.16;;;11.58;50.78
59106;BME280;44891;50.204;8.132;2023-03-20T14:53:48;98476.31;;;11.46;51.53
59106;BME280;44891;50.204;8.132;2023-03-20T14:57:52;98466.03;;;11.44;52.82
59106;BME280;44891;50.204;8.132;2023-03-20T15:01:56;98461.88;;;11.48;52.90
59106;BME280;44891;50.204;8.132;2023-03-20T15:05:58;98450.72;;;11.41;51.99
59106;BME280;44891;50.204;8.132;2023-03-20T15:10:02;98455.91;;;11.36;49.95
59106;BME280;44891;50.204;8.132;2023-03-20T15:14:06;98449.19;;;11.28;50.02
59106;BME280;44891;50.204;8.132;2023-03-20T15:18:10;98447.69;;;11.32;51.37
59106;BME280;44891;50.204;8.132;2023-03-20T15:22:14;98451.16;;;11.21;50.88
59106;BME280;44891;50.204;8.132;2023-03-20T15:26:17;98456.09;;;11.18;50.49
59106;BME280;44891;50.204;8.132;2023-03-20T15:30:21;98453.84;;;11.09;50.96
59106;BME280;44891;50.204;8.132;2023-03-20T15:34:24;98461.53;;;10.99;51.59
59106;BME280;44891;50.204;8.132;2023-03-20T15:38:28;98474.06;;;10.80;53.51
59106;BME280;44891;50.204;8.132;2023-03-20T15:42:30;98463.66;;;10.85;54.21
59106;BME280;44891;50.204;8.132;2023-03-20T15:46:34;98452.44;;;10.90;53.86
59106;BME280;44891;50.204;8.132;2023-03-20T15:50:37;98459.84;;;10.93;54.14
59106;BME280;44891;50.204;8.132;2023-03-20T15:54:39;98452.38;;;10.73;54.71
59106;BME280;44891;50.204;8.132;2023-03-20T15:58:42;98456.75;;;10.56;54.78
59106;BME280;44891;50.204;8.132;2023-03-20T16:02:46;98455.38;;;10.53;54.86
59106;BME280;44891;50.204;8.132;2023-03-20T16:06:51;98452.09;;;10.34;55.80
59106;BME280;44891;50.204;8.132;2023-03-20T16:10:54;98447.09;;;10.33;56.03
59106;BME280;44891;50.204;8.132;2023-03-20T16:14:56;98448.56;;;10.29;56.37
59106;BME280;44891;50.204;8.132;2023-03-20T16:19:00;98453.03;;;10.28;56.56
59106;BME280;44891;50.204;8.132;2023-03-20T16:23:03;98452.91;;;10.35;57.54
59106;BME280;44891;50.204;8.132;2023-03-20T16:27:06;98457.47;;;10.28;57.82
59106;BME280;44891;50.204;8.132;2023-03-20T16:31:10;98452.56;;;10.31;57.18
59106;BME280;44891;50.204;8.132;2023-03-20T16:35:16;98456.22;;;10.30;57.61
59106;BME280;44891;50.204;8.132;2023-03-20T16:39:19;98447.63;;;10.47;57.91
59106;BME280;44891;50.204;8.132;2023-03-20T16:43:24;98456.66;;;10.39;58.05
59106;BME280;44891;50.204;8.132;2023-03-20T16:47:32;98449.94;;;10.31;58.51
59106;BME280;44891;50.204;8.132;2023-03-20T16:51:37;98456.91;;;10.38;58.55
59106;BME280;44891;50.204;8.132;2023-03-20T16:55:40;98451.19;;;10.29;58.18
59106;BME280;44891;50.204;8.132;2023-03-20T16:59:43;98456.31;;;10.35;59.07
59106;BME280;44891;50.204;8.132;2023-03-20T17:03:47;98462.97;;;10.26;60.08
59106;BME280;44891;50.204;8.132;2023-03-20T17:07:50;98465.44;;;10.21;59.99
59106;BME280;44891;50.204;8.132;2023-03-20T17:12:04;98460.66;;;10.18;58.13
59106;BME280;44891;50.204;8.132;2023-03-20T17:16:08;98472.63;;;10.14;58.25
59106;BME280;44891;50.204;8.132;2023-03-20T17:20:12;98469.56;;;10.05;58.98
59106;BME280;44891;50.204;8.132;2023-03-20T17:24:20;98468.75;;;10.05;59.97
59106;BME280;44891;50.204;8.132;2023-03-20T17:28:22;98471.59;;;9.92;60.85
59106;BME280;44891;50.204;8.132;2023-03-20T17:32:27;98470.91;;;9.85;60.97
59106;BME280;44891;50.204;8.132;2023-03-20T17:36:29;98466.91;;;9.94;61.94
59106;BME280;44891;50.204;8.132;2023-03-20T17:40:33;98458.13;;;10.00;62.28
59106;BME280;44891;50.204;8.132;2023-03-20T17:44:35;98456.19;;;10.07;60.66
59106;BME280;44891;50.204;8.132;2023-03-20T17:48:36;98459.97;;;9.99;60.93
59106;BME280;44891;50.204;8.132;2023-03-20T17:52:38;98464.16;;;9.89;61.47
59106;BME280;44891;50.204;8.132;2023-03-20T17:56:41;98462.13;;;9.91;61.55
59106;BME280;44891;50.204;8.132;2023-03-20T18:00:43;98470.69;;;9.86;61.30
59106;BME280;44891;50.204;8.132;2023-03-20T18:04:45;98469.88;;;9.86;61.87
59106;BME280;44891;50.204;8.132;2023-03-20T18:08:47;98468.50;;;9.95;60.68
59106;BME280;44891;50.204;8.132;2023-03-20T18:12:50;98471.34;;;9.58;61.07
59106;BME280;44891;50.204;8.132;2023-03-20T18:16:52;98470.44;;;9.76;62.45
59106;BME280;44891;50.204;8.132;2023-03-20T18:20:54;98468.84;;;9.87;61.49
59106;BME280;44891;50.204;8.132;2023-03-20T18:24:56;98470.78;;;9.79;61.71
59106;BME280;44891;50.204;8.132;2023-03-20T18:29:00;98468.72;;;9.81;61.08
59106;BME280;44891;50.204;8.132;2023-03-20T18:33:02;98459.97;;;9.88;61.14
59106;BME280;44891;50.204;8.132;2023-03-20T18:37:04;98451.06;;;9.89;61.94
59106;BME280;44891;50.204;8.132;2023-03-20T18:41:08;98455.38;;;9.71;62.46
59106;BME280;44891;50.204;8.132;2023-03-20T18:45:12;98458.22;;;9.58;62.52
59106;BME280;44891;50.204;8.132;2023-03-20T18:49:15;98459.34;;;9.62;62.72
59106;BME280;44891;50.204;8.132;2023-03-20T18:53:17;98457.06;;;9.54;62.85
59106;BME280;44891;50.204;8.132;2023-03-20T18:57:19;98469.72;;;9.57;63.12
59106;BME280;44891;50.204;8.132;2023-03-20T19:01:22;98471.75;;;9.55;63.73
59106;BME280;44891;50.204;8.132;2023-03-20T19:05:25;98467.91;;;9.69;64.09
59106;BME280;44891;50.204;8.132;2023-03-20T19:09:27;98465.84;;;9.60;63.68
59106;BME280;44891;50.204;8.132;2023-03-20T19:13:29;98472.22;;;9.64;63.76
59106;BME280;44891;50.204;8.132;2023-03-20T19:17:32;98474.28;;;9.62;63.80
59106;BME280;44891;50.204;8.132;2023-03-20T19:21:34;98467.13;;;9.69;63.80
59106;BME280;44891;50.204;8.132;2023-03-20T19:25:36;98459.47;;;9.67;64.44
59106;BME280;44891;50.204;8.132;2023-03-20T19:29:38;98463.78;;;9.62;64.52
59106;BME280;44891;50.204;8.132;2023-03-20T19:33:41;98458.56;;;9.62;64.87
59106;BME280;44891;50.204;8.132;2023-03-20T19:37:43;98468.28;;;9.73;64.24
59106;BME280;44891;50.204;8.132;2023-03-20T19:41:45;98455.25;;;9.66;65.32
59106;BME280;44891;50.204;8.132;2023-03-20T19:45:47;98467.91;;;9.69;65.19
59106;BME280;44891;50.204;8.132;2023-03-20T19:49:52;98472.44;;;9.50;64.56
59106;BME280;44891;50.204;8.132;2023-03-20T19:53:54;98462.03;;;9.44;65.99
59106;BME280;44891;50.204;8.132;2023-03-20T19:57:56;98454.06;;;9.50;65.44
59106;BME280;44891;50.204;8.132;2023-03-20T20:02:00;98449.94;;;9.31;66.32
59106;BME280;44891;50.204;8.132;2023-03-20T20:06:03;98457.22;;;9.29;66.53
59106;BME280;44891;50.204;8.132;2023-03-20T20:10:05;98454.88;;;9.39;67.16
59106;BME280;44891;50.204;8.132;2023-03-20T20:14:07;98452.34;;;9.33;66.97
59106;BME280;44891;50.204;8.132;2023-03-20T20:18:09;98457.13;;;9.36;67.11
59106;BME280;44891;50.204;8.132;2023-03-20T20:22:12;98453.19;;;9.45;67.03
59106;BME280;44891;50.204;8.132;2023-03-20T20:26:14;98454.78;;;9.46;66.95
59106;BME280;44891;50.204;8.132;2023-03-20T20:30:17;98457.53;;;9.51;67.80
59106;BME280;44891;50.204;8.132;2023-03-20T20:34:20;98457.44;;;9.58;68.44
59106;BME280;44891;50.204;8.132;2023-03-20T20:38:23;98453.75;;;9.47;68.10
59106;BME280;44891;50.204;8.132;2023-03-20T20:42:25;98453.63;;;9.53;68.01
59106;BME280;44891;50.204;8.132;2023-03-20T20:46:27;98457.63;;;9.56;69.30
59106;BME280;44891;50.204;8.132;2023-03-20T20:50:29;98454.91;;;9.51;68.80
59106;BME280;44891;50.204;8.132;2023-03-20T20:54:33;98454.88;;;9.39;69.50
59106;BME280;44891;50.204;8.132;2023-03-20T20:58:35;98462.63;;;9.46;70.07
59106;BME280;44891;50.204;8.132;2023-03-20T21:02:37;98461.72;;;9.40;69.21
59106;BME280;44891;50.204;8.132;2023-03-20T21:06:39;98461.25;;;9.43;70.03
59106;BME280;44891;50.204;8.132;2023-03-20T21:10:44;98457.72;;;9.49;69.95
59106;BME280;44891;50.204;8.132;2023-03-20T21:14:46;98459.66;;;9.42;71.57
59106;BME280;44891;50.204;8.132;2023-03-20T21:18:51;98466.94;;;9.40;70.87
59106;BME280;44891;50.204;8.132;2023-03-20T21:22:52;98464.75;;;9.37;72.47
59106;BME280;44891;50.204;8.132;2023-03-20T21:26:56;98458.28;;;9.40;71.92
59106;BME280;44891;50.204;8.132;2023-03-20T21:30:58;98452.72;;;9.48;70.78
59106;BME280;44891;50.204;8.132;2023-03-20T21:34:59;98458.84;;;9.42;71.30
59106;BME280;44891;50.204;8.132;2023-03-20T21:39:02;98458.28;;;9.40;72.76
59106;BME280;44891;50.204;8.132;2023-03-20T21:43:05;98451.97;;;9.29;71.57
59106;BME280;44891;50.204;8.132;2023-03-20T21:47:07;98456.28;;;9.23;73.05
59106;BME280;44891;50.204;8.132;2023-03-20T21:51:09;98451.88;;;9.36;72.54
59106;BME280;44891;50.204;8.132;2023-03-20T21:55:11;98455.09;;;9.38;72.59